Upper Freehold Township, New Jersey
Current Conditions -  °F | °C
As of 11:38 PM on Wednesday 22 Oct 2014 (Local Time) from KWRI Reporting Station
Heavy Rain Heavy Rain  
Wind Chill: 52°   Ceiling: 1800
Heat Index: 52°   Visibility: 10mi
Dew Point: 50°   Wind: 16mph
Humidity: 94%   Direction: 330°NNW
Pressure: 29.73"   Gusts: 23mph
Location:  40.1405°N, 74.4965°W
Report Text: KWRI 230338Z AUTO 33014G20KT 10SM +RA SCT010 BKN018 OVC028 11/10 A2973 RMK AO2 CIG 012V019 CIG 009 RWY24
Loading
Personal Weather Stations






























Interactive Weather Map
Tropical Storm Tracking
New forecast layout! Learn more

10-Day Weather Forecast

Advertisements
Track Severe Weather on mobile